sensor_id;sensor_type;location;lat;lon;timestamp;pressure;altitude;pressure_sealevel;temperature;humidity
54146;BME280;65909;49.422;7.738;2023-04-07T00:01:22;76617.88;;;-145.25;91.36
54146;BME280;65909;49.422;7.738;2023-04-07T00:03:47;76623.88;;;-145.25;90.69
54146;BME280;65909;49.422;7.738;2023-04-07T00:06:13;76617.88;;;-145.25;90.99
54146;BME280;65909;49.422;7.738;2023-04-07T00:08:38;76633.91;;;-145.25;90.58
54146;BME280;65909;49.422;7.738;2023-04-07T00:11:04;76595.81;;;-145.25;91.51
54146;BME280;65909;49.422;7.738;2023-04-07T00:13:29;76587.78;;;-145.25;91.66
54146;BME280;65909;49.422;7.738;2023-04-07T00:15:55;76587.78;;;-145.25;91.77
54146;BME280;65909;49.422;7.738;2023-04-07T00:18:20;76587.78;;;-145.25;92.29
54146;BME280;65909;49.422;7.738;2023-04-07T00:20:46;76577.78;;;-145.25;92.47
54146;BME280;65909;49.422;7.738;2023-04-07T00:23:11;76579.78;;;-145.25;91.70
54146;BME280;65909;49.422;7.738;2023-04-07T00:25:36;76589.81;;;-145.25;91.60
54146;BME280;65909;49.422;7.738;2023-04-07T00:28:02;76597.81;;;-145.25;91.55
54146;BME280;65909;49.422;7.738;2023-04-07T00:30:27;76579.78;;;-145.25;92.20
54146;BME280;65909;49.422;7.738;2023-04-07T00:32:53;76559.72;;;-145.25;92.46
54146;BME280;65909;49.422;7.738;2023-04-07T00:35:18;76553.72;;;-145.25;92.18
54146;BME280;65909;49.422;7.738;2023-04-07T00:37:43;76543.69;;;-145.25;91.95
54146;BME280;65909;49.422;7.738;2023-04-07T00:40:09;76549.69;;;-145.25;91.19
54146;BME280;65909;49.422;7.738;2023-04-07T00:42:35;76537.66;;;-145.25;91.24
54146;BME280;65909;49.422;7.738;2023-04-07T00:45:00;76541.69;;;-145.25;91.10
54146;BME280;65909;49.422;7.738;2023-04-07T00:47:26;76521.63;;;-145.25;92.03
54146;BME280;65909;49.422;7.738;2023-04-07T00:49:51;76503.59;;;-145.25;91.73
54146;BME280;65909;49.422;7.738;2023-04-07T00:52:17;76511.59;;;-145.25;90.34
54146;BME280;65909;49.422;7.738;2023-04-07T00:54:43;76507.59;;;-145.25;90.06
54146;BME280;65909;49.422;7.738;2023-04-07T00:57:10;76519.63;;;-145.25;89.78
54146;BME280;65909;49.422;7.738;2023-04-07T00:59:35;76521.63;;;-145.25;89.91
54146;BME280;65909;49.422;7.738;2023-04-07T01:02:06;76507.59;;;-145.25;90.78
54146;BME280;65909;49.422;7.738;2023-04-07T01:07:04;76509.59;;;-145.25;89.93
54146;BME280;65909;49.422;7.738;2023-04-07T01:09:36;76549.69;;;-145.25;89.31
54146;BME280;65909;49.422;7.738;2023-04-07T02:14:24;76513.63;;;-145.25;97.17
54146;BME280;65909;49.422;7.738;2023-04-07T02:16:50;76505.59;;;-145.25;97.33
54146;BME280;65909;49.422;7.738;2023-04-07T02:19:16;76513.63;;;-145.25;95.51
54146;BME280;65909;49.422;7.738;2023-04-07T02:21:43;76517.63;;;-145.25;94.92
54146;BME280;65909;49.422;7.738;2023-04-07T02:24:10;76541.69;;;-145.25;93.70
54146;BME280;65909;49.422;7.738;2023-04-07T02:26:35;76525.63;;;-145.25;94.72
54146;BME280;65909;49.422;7.738;2023-04-07T02:29:02;76517.63;;;-145.25;94.56
54146;BME280;65909;49.422;7.738;2023-04-07T02:31:28;76553.72;;;-145.25;93.00
54146;BME280;65909;49.422;7.738;2023-04-07T02:33:53;76541.69;;;-145.25;94.12
54146;BME280;65909;49.422;7.738;2023-04-07T02:36:18;76563.72;;;-145.25;93.68
54146;BME280;65909;49.422;7.738;2023-04-07T02:38:44;76553.72;;;-145.25;94.58
54146;BME280;65909;49.422;7.738;2023-04-07T02:41:09;76539.69;;;-145.25;95.08
54146;BME280;65909;49.422;7.738;2023-04-07T02:43:35;76541.69;;;-145.25;94.94
54146;BME280;65909;49.422;7.738;2023-04-07T02:46:00;76557.72;;;-145.25;94.56
54146;BME280;65909;49.422;7.738;2023-04-07T02:48:26;76565.75;;;-145.25;94.73
54146;BME280;65909;49.422;7.738;2023-04-07T02:50:51;76563.72;;;-145.25;95.16
54146;BME280;65909;49.422;7.738;2023-04-07T02:53:16;76577.78;;;-145.25;94.90
54146;BME280;65909;49.422;7.738;2023-04-07T02:55:42;76559.72;;;-145.25;95.79
54146;BME280;65909;49.422;7.738;2023-04-07T02:58:07;76573.75;;;-145.25;94.97
54146;BME280;65909;49.422;7.738;2023-04-07T03:00:33;76557.72;;;-145.25;95.56
54146;BME280;65909;49.422;7.738;2023-04-07T03:02:58;76563.72;;;-145.25;94.92
54146;BME280;65909;49.422;7.738;2023-04-07T03:05:24;76567.75;;;-145.25;95.12
54146;BME280;65909;49.422;7.738;2023-04-07T03:07:49;76559.72;;;-145.25;95.96
54146;BME280;65909;49.422;7.738;2023-04-07T03:10:14;76561.72;;;-145.25;95.48
54146;BME280;65909;49.422;7.738;2023-04-07T03:12:40;76537.66;;;-145.25;95.55
54146;BME280;65909;49.422;7.738;2023-04-07T03:15:06;76523.63;;;-145.25;95.97
54146;BME280;65909;49.422;7.738;2023-04-07T03:17:32;76533.66;;;-145.25;94.74
54146;BME280;65909;49.422;7.738;2023-04-07T03:19:57;76521.63;;;-145.25;94.96
54146;BME280;65909;49.422;7.738;2023-04-07T03:22:23;76531.66;;;-145.25;94.46
54146;BME280;65909;49.422;7.738;2023-04-07T03:24:48;76505.59;;;-145.25;95.14
54146;BME280;65909;49.422;7.738;2023-04-07T03:27:13;76507.59;;;-145.25;94.83
54146;BME280;65909;49.422;7.738;2023-04-07T03:29:40;76509.59;;;-145.25;94.71
54146;BME280;65909;49.422;7.738;2023-04-07T03:32:05;76495.56;;;-145.25;94.98
54146;BME280;65909;49.422;7.738;2023-04-07T03:34:31;76497.56;;;-145.25;95.18
54146;BME280;65909;49.422;7.738;2023-04-07T03:36:56;76511.59;;;-145.25;94.18
54146;BME280;65909;49.422;7.738;2023-04-07T03:39:22;76509.59;;;-145.25;94.98
54146;BME280;65909;49.422;7.738;2023-04-07T03:41:47;76513.63;;;-145.25;94.60
54146;BME280;65909;49.422;7.738;2023-04-07T03:44:12;76505.59;;;-145.25;95.08
54146;BME280;65909;49.422;7.738;2023-04-07T03:46:38;76499.56;;;-145.25;95.46
54146;BME280;65909;49.422;7.738;2023-04-07T03:49:03;76509.59;;;-145.25;94.55
54146;BME280;65909;49.422;7.738;2023-04-07T03:51:28;76515.63;;;-145.25;94.38
54146;BME280;65909;49.422;7.738;2023-04-07T03:53:54;76523.63;;;-145.25;94.14
54146;BME280;65909;49.422;7.738;2023-04-07T03:56:19;76521.63;;;-145.25;94.25
54146;BME280;65909;49.422;7.738;2023-04-07T03:58:45;76507.59;;;-145.25;94.72
54146;BME280;65909;49.422;7.738;2023-04-07T04:01:10;76513.63;;;-145.25;94.62
54146;BME280;65909;49.422;7.738;2023-04-07T04:03:36;76523.63;;;-145.25;93.73
54146;BME280;65909;49.422;7.738;2023-04-07T04:06:01;76521.63;;;-145.25;94.36
54146;BME280;65909;49.422;7.738;2023-04-07T04:08:28;76537.66;;;-145.25;94.46
54146;BME280;65909;49.422;7.738;2023-04-07T04:10:53;76529.66;;;-145.25;95.05
54146;BME280;65909;49.422;7.738;2023-04-07T04:13:18;76515.63;;;-145.25;95.29
54146;BME280;65909;49.422;7.738;2023-04-07T04:15:44;76517.63;;;-145.25;95.08
54146;BME280;65909;49.422;7.738;2023-04-07T04:18:09;76517.63;;;-145.25;94.54
54146;BME280;65909;49.422;7.738;2023-04-07T04:20:35;76535.66;;;-145.25;93.87
54146;BME280;65909;49.422;7.738;2023-04-07T04:23:01;76525.63;;;-145.25;94.92
54146;BME280;65909;49.422;7.738;2023-04-07T04:25:26;76525.63;;;-145.25;94.43
54146;BME280;65909;49.422;7.738;2023-04-07T04:27:52;76525.63;;;-145.25;94.91
54146;BME280;65909;49.422;7.738;2023-04-07T04:30:17;76511.59;;;-145.25;95.21
54146;BME280;65909;49.422;7.738;2023-04-07T04:32:42;76513.63;;;-145.25;94.61
54146;BME280;65909;49.422;7.738;2023-04-07T04:35:08;76511.59;;;-145.25;95.10
54146;BME280;65909;49.422;7.738;2023-04-07T04:37:34;76503.59;;;-145.25;95.05
54146;BME280;65909;49.422;7.738;2023-04-07T04:39:59;76509.59;;;-145.25;94.64
54146;BME280;65909;49.422;7.738;2023-04-07T04:42:25;76507.59;;;-145.25;94.70
54146;BME280;65909;49.422;7.738;2023-04-07T04:44:52;76509.59;;;-145.25;94.57
54146;BME280;65909;49.422;7.738;2023-04-07T04:47:17;76513.63;;;-145.25;94.49
54146;BME280;65909;49.422;7.738;2023-04-07T04:49:43;76509.59;;;-145.25;94.50
54146;BME280;65909;49.422;7.738;2023-04-07T04:52:08;76529.66;;;-145.25;94.40
54146;BME280;65909;49.422;7.738;2023-04-07T04:54:33;76521.63;;;-145.25;94.15
54146;BME280;65909;49.422;7.738;2023-04-07T04:56:59;76545.69;;;-145.25;93.90
54146;BME280;65909;49.422;7.738;2023-04-07T04:59:25;76535.66;;;-145.25;94.49
54146;BME280;65909;49.422;7.738;2023-04-07T05:01:51;76529.66;;;-145.25;94.30
54146;BME280;65909;49.422;7.738;2023-04-07T05:04:16;76527.66;;;-145.25;94.57
54146;BME280;65909;49.422;7.738;2023-04-07T05:06:42;76529.66;;;-145.25;94.38
54146;BME280;65909;49.422;7.738;2023-04-07T05:09:08;76533.66;;;-145.25;94.59
54146;BME280;65909;49.422;7.738;2023-04-07T05:11:33;76537.66;;;-145.25;94.06
54146;BME280;65909;49.422;7.738;2023-04-07T05:13:58;76537.66;;;-145.25;94.54
54146;BME280;65909;49.422;7.738;2023-04-07T05:16:24;76543.69;;;-145.25;94.39
54146;BME280;65909;49.422;7.738;2023-04-07T05:18:49;76539.69;;;-145.25;95.10
54146;BME280;65909;49.422;7.738;2023-04-07T05:21:15;76543.69;;;-145.25;94.65
54146;BME280;65909;49.422;7.738;2023-04-07T05:23:40;76539.69;;;-145.25;95.00
54146;BME280;65909;49.422;7.738;2023-04-07T05:26:05;76535.66;;;-145.25;95.14
54146;BME280;65909;49.422;7.738;2023-04-07T05:28:31;76547.69;;;-145.25;94.92
54146;BME280;65909;49.422;7.738;2023-04-07T05:30:56;76539.69;;;-145.25;95.04
54146;BME280;65909;49.422;7.738;2023-04-07T05:33:22;76529.66;;;-145.25;95.95
54146;BME280;65909;49.422;7.738;2023-04-07T05:35:47;76531.66;;;-145.25;94.94
54146;BME280;65909;49.422;7.738;2023-04-07T05:38:12;76519.63;;;-145.25;95.26
54146;BME280;65909;49.422;7.738;2023-04-07T05:40:39;76531.66;;;-145.25;95.02
54146;BME280;65909;49.422;7.738;2023-04-07T05:43:05;76531.66;;;-145.25;95.04
54146;BME280;65909;49.422;7.738;2023-04-07T05:45:30;76537.66;;;-145.25;95.00
54146;BME280;65909;49.422;7.738;2023-04-07T05:47:55;76539.69;;;-145.25;95.10
54146;BME280;65909;49.422;7.738;2023-04-07T05:50:21;76531.66;;;-145.25;95.51
54146;BME280;65909;49.422;7.738;2023-04-07T05:52:46;76537.66;;;-145.25;94.55
54146;BME280;65909;49.422;7.738;2023-04-07T05:55:11;76517.63;;;-145.25;95.03
54146;BME280;65909;49.422;7.738;2023-04-07T05:57:37;76541.69;;;-145.25;93.90
54146;BME280;65909;49.422;7.738;2023-04-07T06:00:02;76519.63;;;-145.25;94.96
54146;BME280;65909;49.422;7.738;2023-04-07T06:02:28;76525.63;;;-145.25;94.29
54146;BME280;65909;49.422;7.738;2023-04-07T06:04:54;76525.63;;;-145.25;94.28
54146;BME280;65909;49.422;7.738;2023-04-07T06:07:20;76555.72;;;-145.25;93.42
54146;BME280;65909;49.422;7.738;2023-04-07T06:09:45;76545.69;;;-145.25;94.16
54146;BME280;65909;49.422;7.738;2023-04-07T06:12:11;76561.72;;;-145.25;94.51
54146;BME280;65909;49.422;7.738;2023-04-07T06:14:37;76557.72;;;-145.25;94.77
54146;BME280;65909;49.422;7.738;2023-04-07T06:17:02;76553.72;;;-145.25;94.85
54146;BME280;65909;49.422;7.738;2023-04-07T06:19:28;76569.75;;;-145.25;94.69
54146;BME280;65909;49.422;7.738;2023-04-07T06:21:53;76553.72;;;-145.25;95.10
54146;BME280;65909;49.422;7.738;2023-04-07T06:24:18;76543.69;;;-145.25;94.76
54146;BME280;65909;49.422;7.738;2023-04-07T06:26:47;76541.69;;;-145.25;94.11
54146;BME280;65909;49.422;7.738;2023-04-07T06:29:12;76527.66;;;-145.25;94.44
54146;BME280;65909;49.422;7.738;2023-04-07T06:31:38;76515.63;;;-145.25;94.25
54146;BME280;65909;49.422;7.738;2023-04-07T06:34:03;76521.63;;;-145.25;94.19
54146;BME280;65909;49.422;7.738;2023-04-07T06:36:29;76497.56;;;-145.25;94.38
54146;BME280;65909;49.422;7.738;2023-04-07T06:38:54;76499.56;;;-145.25;93.71
54146;BME280;65909;49.422;7.738;2023-04-07T06:41:20;76509.59;;;-145.25;93.15
54146;BME280;65909;49.422;7.738;2023-04-07T06:43:46;76509.59;;;-145.25;93.48
54146;BME280;65909;49.422;7.738;2023-04-07T06:46:12;76501.59;;;-145.25;93.39
54146;BME280;65909;49.422;7.738;2023-04-07T06:48:37;76501.59;;;-145.25;93.57
54146;BME280;65909;49.422;7.738;2023-04-07T06:51:02;76495.56;;;-145.25;93.45
54146;BME280;65909;49.422;7.738;2023-04-07T06:53:28;76489.56;;;-145.25;93.52
54146;BME280;65909;49.422;7.738;2023-04-07T06:56:07;76481.53;;;-145.25;93.56
54146;BME280;65909;49.422;7.738;2023-04-07T06:58:33;76503.59;;;-145.25;92.76
54146;BME280;65909;49.422;7.738;2023-04-07T07:01:00;76511.59;;;-145.25;93.07
54146;BME280;65909;49.422;7.738;2023-04-07T07:03:26;76515.63;;;-145.25;93.19
54146;BME280;65909;49.422;7.738;2023-04-07T07:05:53;76513.63;;;-145.25;93.86
54146;BME280;65909;49.422;7.738;2023-04-07T07:08:18;76521.63;;;-145.25;93.05
54146;BME280;65909;49.422;7.738;2023-04-07T07:10:44;76525.63;;;-145.25;93.93
54146;BME280;65909;49.422;7.738;2023-04-07T07:13:09;76533.66;;;-145.25;93.80
54146;BME280;65909;49.422;7.738;2023-04-07T07:15:34;76533.66;;;-145.25;93.78
54146;BME280;65909;49.422;7.738;2023-04-07T07:18:00;76517.63;;;-145.25;94.46
54146;BME280;65909;49.422;7.738;2023-04-07T07:20:25;76517.63;;;-145.25;94.35
54146;BME280;65909;49.422;7.738;2023-04-07T07:22:51;76509.59;;;-145.25;94.08
54146;BME280;65909;49.422;7.738;2023-04-07T07:25:17;76511.59;;;-145.25;93.48
54146;BME280;65909;49.422;7.738;2023-04-07T07:27:42;76495.56;;;-145.25;94.09
54146;BME280;65909;49.422;7.738;2023-04-07T07:30:08;76487.53;;;-145.25;94.28
54146;BME280;65909;49.422;7.738;2023-04-07T07:32:33;76481.53;;;-145.25;93.97
54146;BME280;65909;49.422;7.738;2023-04-07T07:34:58;76497.56;;;-145.25;93.19
54146;BME280;65909;49.422;7.738;2023-04-07T07:37:24;76485.53;;;-145.25;93.66
54146;BME280;65909;49.422;7.738;2023-04-07T07:39:49;76485.53;;;-145.25;94.33
54146;BME280;65909;49.422;7.738;2023-04-07T07:42:15;76495.56;;;-145.25;93.54
54146;BME280;65909;49.422;7.738;2023-04-07T07:44:40;76517.63;;;-145.25;93.43
54146;BME280;65909;49.422;7.738;2023-04-07T07:47:05;76533.66;;;-145.25;93.98
54146;BME280;65909;49.422;7.738;2023-04-07T07:49:31;76513.63;;;-145.25;94.49
54146;BME280;65909;49.422;7.738;2023-04-07T07:51:56;76513.63;;;-145.25;94.93
54146;BME280;65909;49.422;7.738;2023-04-07T07:54:23;76525.63;;;-145.25;94.33
54146;BME280;65909;49.422;7.738;2023-04-07T07:56:49;76509.59;;;-145.25;94.55
54146;BME280;65909;49.422;7.738;2023-04-07T07:59:14;76503.59;;;-145.25;93.90
54146;BME280;65909;49.422;7.738;2023-04-07T08:01:40;76509.59;;;-145.25;93.74
54146;BME280;65909;49.422;7.738;2023-04-07T08:04:05;76507.59;;;-145.25;93.71
54146;BME280;65909;49.422;7.738;2023-04-07T08:06:30;76513.63;;;-145.25;93.54
54146;BME280;65909;49.422;7.738;2023-04-07T08:08:56;76519.63;;;-145.25;93.66
54146;BME280;65909;49.422;7.738;2023-04-07T08:11:21;76509.59;;;-145.25;94.61
54146;BME280;65909;49.422;7.738;2023-04-07T08:13:47;76511.59;;;-145.25;93.80
54146;BME280;65909;49.422;7.738;2023-04-07T08:16:12;76517.63;;;-145.25;93.71
54146;BME280;65909;49.422;7.738;2023-04-07T08:18:38;76507.59;;;-145.25;94.19
54146;BME280;65909;49.422;7.738;2023-04-07T08:21:04;76505.59;;;-145.25;94.38
54146;BME280;65909;49.422;7.738;2023-04-07T08:23:30;76509.59;;;-145.25;94.10
54146;BME280;65909;49.422;7.738;2023-04-07T08:25:55;76507.59;;;-145.25;93.97
54146;BME280;65909;49.422;7.738;2023-04-07T08:28:21;76505.59;;;-145.25;94.20
54146;BME280;65909;49.422;7.738;2023-04-07T08:30:47;76513.63;;;-145.25;93.69
54146;BME280;65909;49.422;7.738;2023-04-07T08:33:12;76505.59;;;-145.25;93.80
54146;BME280;65909;49.422;7.738;2023-04-07T08:35:38;76493.56;;;-145.25;94.38
54146;BME280;65909;49.422;7.738;2023-04-07T08:38:03;76481.53;;;-145.25;94.02
54146;BME280;65909;49.422;7.738;2023-04-07T08:40:31;76465.50;;;-145.25;93.70
54146;BME280;65909;49.422;7.738;2023-04-07T08:42:59;76449.44;;;-145.25;94.07
54146;BME280;65909;49.422;7.738;2023-04-07T08:45:25;76461.47;;;-145.25;93.95
54146;BME280;65909;49.422;7.738;2023-04-07T08:47:54;76469.50;;;-145.25;93.73
54146;BME280;65909;49.422;7.738;2023-04-07T08:50:25;76459.47;;;-145.25;94.00
54146;BME280;65909;49.422;7.738;2023-04-07T08:52:53;76461.47;;;-145.25;93.77
54146;BME280;65909;49.422;7.738;2023-04-07T08:55:19;76473.50;;;-145.25;93.34
54146;BME280;65909;49.422;7.738;2023-04-07T08:57:45;76475.53;;;-145.25;93.67
54146;BME280;65909;49.422;7.738;2023-04-07T09:00:11;76473.50;;;-145.25;93.87
54146;BME280;65909;49.422;7.738;2023-04-07T09:02:40;76477.53;;;-145.25;93.77
54146;BME280;65909;49.422;7.738;2023-04-07T09:05:08;76483.53;;;-145.25;93.61
54146;BME280;65909;49.422;7.738;2023-04-07T09:07:35;76481.53;;;-145.25;93.33
54146;BME280;65909;49.422;7.738;2023-04-07T09:10:02;76485.53;;;-145.25;94.25
54146;BME280;65909;49.422;7.738;2023-04-07T09:12:28;76489.56;;;-145.25;93.95
54146;BME280;65909;49.422;7.738;2023-04-07T09:14:54;76473.50;;;-145.25;95.06
54146;BME280;65909;49.422;7.738;2023-04-07T09:17:20;76453.47;;;-145.25;94.77
54146;BME280;65909;49.422;7.738;2023-04-07T09:19:48;76453.47;;;-145.25;94.29
54146;BME280;65909;49.422;7.738;2023-04-07T09:22:13;76465.50;;;-145.25;94.15
54146;BME280;65909;49.422;7.738;2023-04-07T09:24:41;76501.59;;;-145.25;94.61
54146;BME280;65909;49.422;7.738;2023-04-07T09:27:15;76517.63;;;-145.25;96.11
54146;BME280;65909;49.422;7.738;2023-04-07T09:29:43;76533.66;;;-145.25;96.06
54146;BME280;65909;49.422;7.738;2023-04-07T09:32:09;76577.78;;;-145.25;97.12
54146;BME280;65909;49.422;7.738;2023-04-07T09:34:37;76581.78;;;-145.25;98.51
54146;BME280;65909;49.422;7.738;2023-04-07T09:37:04;76591.81;;;-145.25;99.68
54146;BME280;65909;49.422;7.738;2023-04-07T09:39:30;76621.88;;;-145.25;99.99
54146;BME280;65909;49.422;7.738;2023-04-07T09:41:56;76615.88;;;-145.25;100.00
54146;BME280;65909;49.422;7.738;2023-04-07T09:44:23;76617.88;;;-145.25;100.00
54146;BME280;65909;49.422;7.738;2023-04-07T09:46:56;76613.84;;;-145.25;100.00
54146;BME280;65909;49.422;7.738;2023-04-07T09:49:23;76621.88;;;-145.25;100.00
54146;BME280;65909;49.422;7.738;2023-04-07T09:51:52;76635.91;;;-145.25;100.00
54146;BME280;65909;49.422;7.738;2023-04-07T09:54:32;76643.94;;;-145.25;100.00
54146;BME280;65909;49.422;7.738;2023-04-07T09:56:59;76605.84;;;-145.25;100.00
54146;BME280;65909;49.422;7.738;2023-04-07T09:59:27;76631.91;;;-145.25;100.00
54146;BME280;65909;49.422;7.738;2023-04-07T10:01:53;76629.91;;;-145.25;100.00
54146;BME280;65909;49.422;7.738;2023-04-07T10:04:19;76631.91;;;-145.25;100.00
54146;BME280;65909;49.422;7.738;2023-04-07T10:06:45;76623.88;;;-145.25;100.00
54146;BME280;65909;49.422;7.738;2023-04-07T10:09:11;76625.88;;;-145.25;100.00
54146;BME280;65909;49.422;7.738;2023-04-07T10:11:38;76625.88;;;-145.25;100.00
54146;BME280;65909;49.422;7.738;2023-04-07T10:14:04;76621.88;;;-145.25;100.00
54146;BME280;65909;49.422;7.738;2023-04-07T10:16:29;76619.88;;;-145.25;100.00
54146;BME280;65909;49.422;7.738;2023-04-07T10:18:55;76643.94;;;-145.25;100.00
54146;BME280;65909;49.422;7.738;2023-04-07T10:21:21;76627.88;;;-145.25;100.00
54146;BME280;65909;49.422;7.738;2023-04-07T10:26:54;76645.94;;;-145.25;100.00
54146;BME280;65909;49.422;7.738;2023-04-07T10:29:21;76629.91;;;-145.25;100.00
54146;BME280;65909;49.422;7.738;2023-04-07T10:31:48;76597.81;;;-145.25;100.00
54146;BME280;65909;49.422;7.738;2023-04-07T10:34:14;76633.91;;;-145.25;100.00
54146;BME280;65909;49.422;7.738;2023-04-07T10:37:11;76635.91;;;-145.25;100.00
54146;BME280;65909;49.422;7.738;2023-04-07T10:39:38;76635.91;;;-145.25;100.00
54146;BME280;65909;49.422;7.738;2023-04-07T10:42:04;76623.88;;;-145.25;100.00
54146;BME280;65909;49.422;7.738;2023-04-07T10:47:07;76627.88;;;-145.25;100.00
54146;BME280;65909;49.422;7.738;2023-04-07T10:49:33;76619.88;;;-145.25;100.00
54146;BME280;65909;49.422;7.738;2023-04-07T10:54:36;76633.91;;;-145.25;100.00
54146;BME280;65909;49.422;7.738;2023-04-07T10:59:31;76625.88;;;-145.25;100.00
54146;BME280;65909;49.422;7.738;2023-04-07T11:04:38;76593.81;;;-145.25;100.00
54146;BME280;65909;49.422;7.738;2023-04-07T11:07:04;76597.81;;;-145.25;100.00
54146;BME280;65909;49.422;7.738;2023-04-07T11:09:30;76601.81;;;-145.25;100.00
54146;BME280;65909;49.422;7.738;2023-04-07T11:11:55;76625.88;;;-145.25;100.00
54146;BME280;65909;49.422;7.738;2023-04-07T11:14:29;76597.81;;;-145.25;100.00
54146;BME280;65909;49.422;7.738;2023-04-07T11:16:55;76581.78;;;-145.25;100.00
54146;BME280;65909;49.422;7.738;2023-04-07T11:19:21;76601.81;;;-145.25;100.00
54146;BME280;65909;49.422;7.738;2023-04-07T11:21:46;76587.78;;;-145.25;100.00
54146;BME280;65909;49.422;7.738;2023-04-07T11:24:31;76593.81;;;-145.25;100.00
54146;BME280;65909;49.422;7.738;2023-04-07T11:26:57;76605.84;;;-145.25;100.00
54146;BME280;65909;49.422;7.738;2023-04-07T11:29:30;76605.84;;;-145.25;100.00
54146;BME280;65909;49.422;7.738;2023-04-07T11:31:58;76583.78;;;-145.25;100.00
54146;BME280;65909;49.422;7.738;2023-04-07T11:34:34;76585.78;;;-145.25;100.00
54146;BME280;65909;49.422;7.738;2023-04-07T11:37:22;76577.78;;;-145.25;100.00
54146;BME280;65909;49.422;7.738;2023-04-07T11:39:52;76635.91;;;-145.25;100.00
54146;BME280;65909;49.422;7.738;2023-04-07T11:42:38;76627.88;;;-145.25;100.00
54146;BME280;65909;49.422;7.738;2023-04-07T11:45:05;76615.88;;;-145.25;100.00
54146;BME280;65909;49.422;7.738;2023-04-07T11:47:38;76617.88;;;-145.25;100.00
54146;BME280;65909;49.422;7.738;2023-04-07T11:50:04;76645.94;;;-145.25;100.00
54146;BME280;65909;49.422;7.738;2023-04-07T11:52:48;76629.91;;;-145.25;100.00
54146;BME280;65909;49.422;7.738;2023-04-07T11:55:21;76579.78;;;-145.25;100.00
54146;BME280;65909;49.422;7.738;2023-04-07T11:57:49;76593.81;;;-145.25;100.00
54146;BME280;65909;49.422;7.738;2023-04-07T12:00:15;76555.72;;;-145.25;100.00
54146;BME280;65909;49.422;7.738;2023-04-07T12:02:42;76579.78;;;-145.25;100.00
54146;BME280;65909;49.422;7.738;2023-04-07T12:05:08;76571.75;;;-145.25;100.00
54146;BME280;65909;49.422;7.738;2023-04-07T12:07:35;76577.78;;;-145.25;100.00
54146;BME280;65909;49.422;7.738;2023-04-07T12:10:21;60229.84;;;-145.25;100.00
54146;BME280;65909;49.422;7.738;2023-04-07T12:12:47;76537.66;;;-145.25;100.00
54146;BME280;65909;49.422;7.738;2023-04-07T12:15:13;76573.75;;;-145.25;100.00
54146;BME280;65909;49.422;7.738;2023-04-07T12:17:43;60229.84;;;-145.25;100.00
54146;BME280;65909;49.422;7.738;2023-04-07T12:20:10;76609.84;;;-145.25;100.00
54146;BME280;65909;49.422;7.738;2023-04-07T12:22:35;60229.84;;;-145.25;100.00
54146;BME280;65909;49.422;7.738;2023-04-07T12:25:01;60229.84;;;-145.25;100.00
54146;BME280;65909;49.422;7.738;2023-04-07T12:27:26;76519.63;;;-145.25;100.00
54146;BME280;65909;49.422;7.738;2023-04-07T12:29:52;76453.47;;;-145.25;100.00
54146;BME280;65909;49.422;7.738;2023-04-07T12:32:17;76465.50;;;-145.25;100.00
54146;BME280;65909;49.422;7.738;2023-04-07T12:34:43;76465.50;;;-143.95;100.00
54146;BME280;65909;49.422;7.738;2023-04-07T12:37:09;60230.13;;;-145.25;100.00
54146;BME280;65909;49.422;7.738;2023-04-07T12:39:34;76475.53;;;-145.25;100.00
54146;BME280;65909;49.422;7.738;2023-04-07T12:41:59;60229.84;;;-145.25;100.00
54146;BME280;65909;49.422;7.738;2023-04-07T12:44:25;76433.41;;;-145.25;100.00
54146;BME280;65909;49.422;7.738;2023-04-07T12:46:50;76473.50;;;-145.25;100.00
54146;BME280;65909;49.422;7.738;2023-04-07T12:49:16;76497.56;;;-145.25;100.00
54146;BME280;65909;49.422;7.738;2023-04-07T12:51:41;76465.50;;;-145.25;100.00
54146;BME280;65909;49.422;7.738;2023-04-07T12:54:07;76459.47;;;-145.25;100.00
54146;BME280;65909;49.422;7.738;2023-04-07T12:56:32;76465.50;;;-145.25;100.00
54146;BME280;65909;49.422;7.738;2023-04-07T12:58:57;76437.44;;;-145.25;100.00
54146;BME280;65909;49.422;7.738;2023-04-07T13:01:23;76447.44;;;-145.25;100.00
54146;BME280;65909;49.422;7.738;2023-04-07T13:03:48;76407.34;;;-145.25;100.00
54146;BME280;65909;49.422;7.738;2023-04-07T13:06:13;76411.38;;;-145.25;100.00
54146;BME280;65909;49.422;7.738;2023-04-07T13:08:39;76429.41;;;-145.25;100.00
54146;BME280;65909;49.422;7.738;2023-04-07T13:11:05;76399.34;;;-145.25;100.00
54146;BME280;65909;49.422;7.738;2023-04-07T13:13:31;76389.31;;;-145.25;100.00
54146;BME280;65909;49.422;7.738;2023-04-07T13:15:56;76401.34;;;-145.25;100.00
54146;BME280;65909;49.422;7.738;2023-04-07T13:18:22;76383.28;;;-145.25;100.00
54146;BME280;65909;49.422;7.738;2023-04-07T13:20:47;76367.25;;;-145.25;100.00
54146;BME280;65909;49.422;7.738;2023-04-07T13:23:13;76339.19;;;-145.25;100.00
54146;BME280;65909;49.422;7.738;2023-04-07T13:25:38;76325.16;;;-145.25;100.00
54146;BME280;65909;49.422;7.738;2023-04-07T13:28:04;76299.09;;;-145.25;100.00
54146;BME280;65909;49.422;7.738;2023-04-07T13:30:30;76319.13;;;-145.25;100.00
54146;BME280;65909;49.422;7.738;2023-04-07T13:32:55;76307.13;;;-145.25;100.00
54146;BME280;65909;49.422;7.738;2023-04-07T13:35:21;76337.19;;;-145.25;100.00
54146;BME280;65909;49.422;7.738;2023-04-07T13:37:46;76323.16;;;-145.25;100.00
54146;BME280;65909;49.422;7.738;2023-04-07T13:40:11;76327.16;;;-145.25;100.00
54146;BME280;65909;49.422;7.738;2023-04-07T13:42:40;76353.22;;;-145.25;100.00
54146;BME280;65909;49.422;7.738;2023-04-07T13:45:06;76369.25;;;-145.25;100.00
54146;BME280;65909;49.422;7.738;2023-04-07T13:47:31;76351.22;;;-145.25;100.00
54146;BME280;65909;49.422;7.738;2023-04-07T13:50:02;76357.22;;;-145.25;100.00
54146;BME280;65909;49.422;7.738;2023-04-07T13:52:28;76329.16;;;-145.25;100.00